Wetterdaten: Woche 26.09.11 - 02.10.11 (KW39)
Datum Zeit Temp. Innen Temp. Aussen UV X Diff Temp. Feuchte Inne Feuchte Auss Sonnenschein Luftdruck Regen ab 0,1 Wind Sonnenschein T Regendauer Windben
26.09.2011 00:00 22,5 C 14,9 C 0,0 UV-I 0,0 C 58 % 87 % 0 % 1020,4 hPa 0,0 l/m 0,0 km/h (0 Bft) 0,00 h 0,07 h 0,0 km/h (0 Bft)
26.09.2011 01:00 22,4 C 14,6 C 0,0 UV-I 0,0 C 58 % 87 % 0 % 1020,0 hPa 0,0 l/m 2,7 km/h (1 Bft) 0,00 h 0,00 h 4,2 km/h (1 Bft)
26.09.2011 02:00 22,2 C 14,3 C 0,0 UV-I 0,0 C 58 % 87 % 0 % 1020,5 hPa 0,0 l/m 0,7 km/h (0 Bft) 0,00 h 0,00 h 1,0 km/h (0 Bft)
26.09.2011 03:00 22,1 C 13,7 C 0,0 UV-I 0,0 C 58 % 88 % 0 % 1020,7 hPa 0,0 l/m 0,7 km/h (0 Bft) 0,00 h 0,00 h 1,7 km/h (1 Bft)
26.09.2011 04:00 22,0 C 13,4 C 0,0 UV-I 0,0 C 59 % 89 % 0 % 1020,8 hPa 0,0 l/m 4,2 km/h (1 Bft) 0,00 h 0,00 h 5,7 km/h (1 Bft)
26.09.2011 05:00 21,8 C 13,5 C 0,0 UV-I 0,0 C 59 % 90 % 0 % 1020,9 hPa 0,0 l/m 4,5 km/h (1 Bft) 0,00 h 0,00 h 5,6 km/h (1 Bft)
26.09.2011 06:00 21,8 C 13,3 C 0,0 UV-I 0,0 C 59 % 90 % 0 % 1021,1 hPa 0,0 l/m 4,2 km/h (1 Bft) 0,00 h 0,00 h 6,4 km/h (2 Bft)
26.09.2011 07:00 21,6 C 13,2 C 0,0 UV-I 0,0 C 59 % 91 % 0 % 1021,3 hPa 0,0 l/m 5,4 km/h (1 Bft) 0,00 h 0,00 h 6,9 km/h (2 Bft)
26.09.2011 08:00 21,6 C 14,0 C 0,0 UV-I 0,6 C 59 % 91 % 18 % 1021,6 hPa 0,0 l/m 6,3 km/h (2 Bft) 0,07 h 0,00 h 8,6 km/h (2 Bft)
26.09.2011 09:00 21,8 C 15,4 C 0,1 UV-I 1,4 C 59 % 89 % 40 % 1021,9 hPa 0,0 l/m 6,8 km/h (2 Bft) 0,13 h 0,00 h 8,8 km/h (2 Bft)
26.09.2011 10:00 21,9 C 17,5 C 0,8 UV-I 4,7 C 59 % 87 % 89 % 1022,3 hPa 0,0 l/m 2,5 km/h (1 Bft) 0,80 h 0,00 h 4,3 km/h (1 Bft)
26.09.2011 11:00 22,2 C 20,8 C 1,3 UV-I 5,3 C 59 % 78 % 100 % 1022,7 hPa 0,0 l/m 1,2 km/h (1 Bft) 1,00 h 0,00 h 2,4 km/h (1 Bft)
26.09.2011 12:00 22,6 C 23,1 C 2,0 UV-I 4,5 C 59 % 69 % 100 % 1023,0 hPa 0,0 l/m 3,2 km/h (1 Bft) 1,00 h 0,00 h 6,0 km/h (2 Bft)
26.09.2011 13:00 23,3 C 24,6 C 3,4 UV-I 5,3 C 58 % 59 % 100 % 1023,4 hPa 0,0 l/m 4,9 km/h (1 Bft) 1,00 h 0,00 h 7,3 km/h (2 Bft)
26.09.2011 14:00 24,1 C 25,1 C 2,9 UV-I 4,2 C 56 % 56 % 100 % 1023,8 hPa 0,0 l/m 4,9 km/h (1 Bft) 1,00 h 0,00 h 7,3 km/h (2 Bft)
26.09.2011 15:00 24,8 C 25,4 C 2,9 UV-I 4,1 C 54 % 55 % 99 % 1023,9 hPa 0,0 l/m 4,8 km/h (1 Bft) 1,00 h 0,00 h 6,4 km/h (2 Bft)
26.09.2011 16:00 25,5 C 26,2 C 2,5 UV-I 4,4 C 52 % 52 % 99 % 1024,3 hPa 0,0 l/m 4,2 km/h (1 Bft) 1,00 h 0,00 h 6,6 km/h (2 Bft)
26.09.2011 17:00 25,5 C 25,2 C 0,6 UV-I 1,5 C 52 % 54 % 42 % 1024,3 hPa 0,0 l/m 1,5 km/h (1 Bft) 0,00 h 0,00 h 2,7 km/h (1 Bft)
26.09.2011 18:00 25,0 C 25,0 C 0,1 UV-I 0,7 C 53 % 57 % 20 % 1024,0 hPa 0,0 l/m 0,1 km/h (0 Bft) 0,13 h 0,00 h 0,3 km/h (0 Bft)
26.09.2011 19:00 24,6 C 22,5 C 0,0 UV-I 0,0 C 55 % 65 % 0 % 1024,5 hPa 0,0 l/m 0,0 km/h (0 Bft) 0,00 h 0,00 h 0,0 km/h (0 Bft)
26.09.2011 20:00 24,2 C 20,7 C 0,0 UV-I 0,0 C 56 % 72 % 0 % 1025,0 hPa 0,0 l/m 0,0 km/h (0 Bft) 0,00 h 0,00 h 0,0 km/h (0 Bft)
26.09.2011 21:00 23,9 C 19,5 C 0,0 UV-I 0,0 C 57 % 76 % 0 % 1025,3 hPa 0,0 l/m 0,4 km/h (0 Bft) 0,00 h 0,00 h 1,2 km/h (1 Bft)
26.09.2011 22:00 23,7 C 18,4 C 0,0 UV-I 0,0 C 58 % 78 % 0 % 1025,8 hPa 0,0 l/m 0,0 km/h (0 Bft) 0,00 h 0,00 h 0,0 km/h (0 Bft)
26.09.2011 23:00 23,4 C 17,2 C 0,0 UV-I 0,0 C 59 % 81 % 0 % 1026,4 hPa 0,0 l/m 0,0 km/h (0 Bft) 0,00 h 0,00 h 0,0 km/h (0 Bft)
27.09.2011 00:00 23,2 C 16,5 C 0,0 UV-I 0,0 C 59 % 83 % 0 % 1026,9 hPa 0,0 l/m 0,0 km/h (0 Bft) 0,00 h 0,00 h 0,0 km/h (0 Bft)
27.09.2011 01:00 23,1 C 15,9 C 0,0 UV-I 0,0 C 59 % 86 % 0 % 1026,9 hPa 0,0 l/m 0,0 km/h (0 Bft) 0,00 h 0,00 h 0,0 km/h (0 Bft)
27.09.2011 02:00 22,9 C 15,9 C 0,0 UV-I 0,0 C 60 % 88 % 0 % 1027,1 hPa 0,0 l/m 0,0 km/h (0 Bft) 0,00 h 0,00 h 0,0 km/h (0 Bft)
27.09.2011 03:00 22,8 C 15,6 C 0,0 UV-I 0,0 C 60 % 88 % 0 % 1026,9 hPa 0,0 l/m 0,0 km/h (0 Bft) 0,00 h 0,00 h 0,0 km/h (0 Bft)
27.09.2011 04:00 22,8 C 15,2 C 0,0 UV-I 0,0 C 60 % 89 % 0 % 1027,1 hPa 0,0 l/m 0,0 km/h (0 Bft) 0,00 h 0,07 h 0,0 km/h (0 Bft)
27.09.2011 05:00 22,7 C 14,6 C 0,0 UV-I 0,0 C 61 % 90 % 0 % 1027,6 hPa 0,0 l/m 0,0 km/h (0 Bft) 0,00 h 0,03 h 0,4 km/h (0 Bft)
27.09.2011 06:00 22,6 C 14,4 C 0,0 UV-I 0,0 C 61 % 91 % 0 % 1027,6 hPa 0,0 l/m 0,2 km/h (0 Bft) 0,00 h 0,03 h 0,1 km/h (0 Bft)
27.09.2011 07:00 22,5 C 14,6 C 0,0 UV-I 0,0 C 61 % 91 % 0 % 1028,4 hPa 0,0 l/m 0,0 km/h (0 Bft) 0,00 h 0,03 h 0,0 km/h (0 Bft)
27.09.2011 08:00 22,6 C 15,0 C 0,0 UV-I 0,4 C 61 % 92 % 11 % 1028,8 hPa 0,0 l/m 0,0 km/h (0 Bft) 0,03 h 0,00 h 0,0 km/h (0 Bft)
27.09.2011 09:00 22,6 C 15,9 C 0,2 UV-I 2,2 C 61 % 92 % 61 % 1029,3 hPa 0,0 l/m 1,1 km/h (1 Bft) 0,27 h 0,00 h 2,5 km/h (1 Bft)
27.09.2011 10:00 22,7 C 17,5 C 0,5 UV-I 2,9 C 62 % 91 % 74 % 1029,7 hPa 0,0 l/m 1,2 km/h (1 Bft) 0,43 h 0,00 h 2,2 km/h (1 Bft)
27.09.2011 11:00 23,0 C 19,5 C 1,3 UV-I 5,4 C 61 % 87 % 100 % 1030,2 hPa 0,0 l/m 2,5 km/h (1 Bft) 1,00 h 0,00 h 3,9 km/h (1 Bft)
27.09.2011 12:00 23,3 C 21,0 C 2,2 UV-I 5,8 C 61 % 78 % 100 % 1030,5 hPa 0,0 l/m 6,0 km/h (2 Bft) 1,00 h 0,00 h 9,3 km/h (2 Bft)
27.09.2011 13:00 23,8 C 22,1 C 2,2 UV-I 4,8 C 60 % 72 % 100 % 1030,8 hPa 0,0 l/m 4,6 km/h (1 Bft) 1,00 h 0,00 h 7,8 km/h (2 Bft)
27.09.2011 14:00 24,4 C 22,3 C 2,6 UV-I 4,5 C 59 % 69 % 100 % 1031,0 hPa 0,0 l/m 7,0 km/h (2 Bft) 1,00 h 0,00 h 8,5 km/h (2 Bft)
27.09.2011 15:00 25,3 C 23,1 C 3,2 UV-I 5,7 C 57 % 66 % 100 % 1031,2 hPa 0,0 l/m 4,9 km/h (1 Bft) 1,00 h 0,00 h 7,3 km/h (2 Bft)
27.09.2011 16:00 25,8 C 23,1 C 1,5 UV-I 3,9 C 55 % 65 % 89 % 1031,2 hPa 0,0 l/m 4,7 km/h (1 Bft) 0,70 h 0,00 h 8,0 km/h (2 Bft)
27.09.2011 17:00 25,5 C 22,7 C 0,7 UV-I 2,5 C 56 % 65 % 72 % 1030,7 hPa 0,0 l/m 5,8 km/h (2 Bft) 0,70 h 0,00 h 8,0 km/h (2 Bft)
27.09.2011 18:00 25,1 C 21,8 C 0,1 UV-I 0,4 C 57 % 67 % 12 % 1030,6 hPa 0,0 l/m 2,1 km/h (1 Bft) 0,10 h 0,00 h 2,0 km/h (1 Bft)
27.09.2011 19:00 24,7 C 20,1 C 0,0 UV-I 0,0 C 58 % 72 % 0 % 1030,6 hPa 0,0 l/m 0,1 km/h (0 Bft) 0,00 h 0,00 h 0,5 km/h (0 Bft)
27.09.2011 20:00 24,2 C 17,8 C 0,0 UV-I 0,0 C 58 % 78 % 0 % 1030,9 hPa 0,0 l/m 0,0 km/h (0 Bft) 0,00 h 0,00 h 0,0 km/h (0 Bft)
27.09.2011 21:00 23,8 C 16,1 C 0,0 UV-I 0,0 C 59 % 83 % 0 % 1031,2 hPa 0,0 l/m 0,0 km/h (0 Bft) 0,00 h 0,00 h 0,0 km/h (0 Bft)
27.09.2011 22:00 23,5 C 15,1 C 0,0 UV-I 0,0 C 60 % 86 % 0 % 1031,1 hPa 0,0 l/m 0,0 km/h (0 Bft) 0,00 h 0,03 h 0,0 km/h (0 Bft)
27.09.2011 23:00 23,2 C 14,4 C 0,0 UV-I 0,0 C 60 % 88 % 0 % 1031,3 hPa 0,0 l/m 0,0 km/h (0 Bft) 0,00 h 0,03 h 0,0 km/h (0 Bft)
28.09.2011 00:00 23,0 C 13,6 C 0,0 UV-I 0,0 C 60 % 89 % 0 % 1031,1 hPa 0,0 l/m 0,0 km/h (0 Bft) 0,00 h 0,03 h 0,0 km/h (0 Bft)
28.09.2011 01:00 22,8 C 13,0 C 0,0 UV-I 0,0 C 61 % 90 % 0 % 1030,9 hPa 0,0 l/m 0,0 km/h (0 Bft) 0,00 h 0,03 h 0,0 km/h (0 Bft)
28.09.2011 02:00 22,6 C 12,5 C 0,0 UV-I 0,0 C 61 % 90 % 0 % 1030,9 hPa 0,0 l/m 0,0 km/h (0 Bft) 0,00 h 0,03 h 0,0 km/h (0 Bft)
28.09.2011 03:00 22,5 C 12,1 C 0,0 UV-I 0,0 C 60 % 91 % 0 % 1030,8 hPa 0,0 l/m 0,0 km/h (0 Bft) 0,00 h 0,03 h 0,0 km/h (0 Bft)
28.09.2011 04:00 22,3 C 11,6 C 0,0 UV-I 0,0 C 60 % 92 % 0 % 1030,6 hPa 0,0 l/m 0,0 km/h (0 Bft) 0,00 h 0,00 h 0,0 km/h (0 Bft)
28.09.2011 05:00 22,2 C 11,2 C 0,0 UV-I 0,0 C 60 % 92 % 0 % 1030,7 hPa 0,0 l/m 0,2 km/h (0 Bft) 0,00 h 0,07 h 0,6 km/h (0 Bft)
28.09.2011 06:00 22,0 C 11,1 C 0,0 UV-I 0,0 C 60 % 92 % 0 % 1030,4 hPa 0,0 l/m 0,0 km/h (0 Bft) 0,00 h 0,03 h 0,0 km/h (0 Bft)
28.09.2011 07:00 21,9 C 10,6 C 0,0 UV-I 0,0 C 60 % 92 % 0 % 1030,2 hPa 0,0 l/m 0,0 km/h (0 Bft) 0,00 h 0,03 h 0,0 km/h (0 Bft)
28.09.2011 08:00 21,8 C 10,8 C 0,0 UV-I 0,9 C 60 % 93 % 25 % 1030,1 hPa 0,0 l/m 0,0 km/h (0 Bft) 0,30 h 0,00 h 0,0 km/h (0 Bft)
28.09.2011 09:00 21,8 C 12,7 C 0,1 UV-I 6,2 C 60 % 94 % 100 % 1030,0 hPa 0,0 l/m 0,1 km/h (0 Bft) 1,00 h 0,00 h 0,6 km/h (0 Bft)
28.09.2011 10:00 22,0 C 16,0 C 0,5 UV-I 7,6 C 61 % 94 % 100 % 1030,3 hPa 0,0 l/m 1,7 km/h (1 Bft) 1,00 h 0,00 h 3,9 km/h (1 Bft)
28.09.2011 11:00 22,1 C 19,7 C 1,1 UV-I 6,9 C 63 % 89 % 100 % 1030,6 hPa 0,0 l/m 3,3 km/h (1 Bft) 1,00 h 0,00 h 5,4 km/h (1 Bft)
28.09.2011 12:00 22,6 C 22,3 C 3,7 UV-I 6,0 C 62 % 78 % 100 % 1030,3 hPa 0,0 l/m 5,1 km/h (1 Bft) 1,00 h 0,00 h 7,9 km/h (2 Bft)
28.09.2011 13:00 23,6 C 24,3 C 4,6 UV-I 5,5 C 60 % 66 % 100 % 1030,2 hPa 0,0 l/m 5,1 km/h (1 Bft) 1,00 h 0,00 h 7,9 km/h (2 Bft)
28.09.2011 14:00 24,8 C 25,9 C 4,8 UV-I 5,1 C 58 % 60 % 100 % 1030,3 hPa 0,0 l/m 5,2 km/h (1 Bft) 1,00 h 0,00 h 8,5 km/h (2 Bft)
28.09.2011 15:00 25,8 C 27,1 C 4,1 UV-I 4,6 C 55 % 54 % 100 % 1029,9 hPa 0,0 l/m 4,7 km/h (1 Bft) 1,00 h 0,00 h 7,2 km/h (2 Bft)
28.09.2011 16:00 26,4 C 27,6 C 2,9 UV-I 4,2 C 53 % 51 % 100 % 1029,6 hPa 0,0 l/m 3,6 km/h (1 Bft) 1,00 h 0,00 h 4,6 km/h (1 Bft)
28.09.2011 17:00 26,3 C 27,3 C 0,9 UV-I 2,7 C 53 % 50 % 78 % 1028,8 hPa 0,0 l/m 3,4 km/h (1 Bft) 1,00 h 0,00 h 5,3 km/h (1 Bft)
28.09.2011 18:00 25,7 C 25,7 C 0,1 UV-I 0,8 C 54 % 55 % 22 % 1028,1 hPa 0,0 l/m 0,4 km/h (0 Bft) 0,40 h 0,00 h 0,8 km/h (0 Bft)
28.09.2011 19:00 25,2 C 22,6 C 0,0 UV-I 0,0 C 56 % 64 % 0 % 1027,9 hPa 0,0 l/m 0,0 km/h (0 Bft) 0,00 h 0,00 h 0,0 km/h (0 Bft)
28.09.2011 20:00 24,7 C 19,4 C 0,0 UV-I 0,0 C 57 % 73 % 0 % 1028,2 hPa 0,0 l/m 0,0 km/h (0 Bft) 0,00 h 0,03 h 0,0 km/h (0 Bft)
28.09.2011 21:00 24,3 C 17,5 C 0,0 UV-I 0,0 C 58 % 80 % 0 % 1028,1 hPa 0,0 l/m 0,1 km/h (0 Bft) 0,00 h 0,00 h 0,0 km/h (0 Bft)
28.09.2011 22:00 23,9 C 16,5 C 0,0 UV-I 0,0 C 59 % 84 % 0 % 1028,2 hPa 0,0 l/m 0,0 km/h (0 Bft) 0,00 h 0,03 h 0,0 km/h (0 Bft)
28.09.2011 23:00 23,7 C 15,6 C 0,0 UV-I 0,0 C 60 % 86 % 0 % 1028,3 hPa 0,0 l/m 0,0 km/h (0 Bft) 0,00 h 0,00 h 0,0 km/h (0 Bft)
29.09.2011 00:00 23,4 C 15,2 C 0,0 UV-I 0,0 C 60 % 88 % 0 % 1028,4 hPa 0,0 l/m 0,0 km/h (0 Bft) 0,00 h 0,03 h 0,0 km/h (0 Bft)
29.09.2011 01:00 23,2 C 14,8 C 0,0 UV-I 0,0 C 61 % 89 % 0 % 1028,2 hPa 0,0 l/m 0,0 km/h (0 Bft) 0,00 h 0,07 h 0,0 km/h (0 Bft)
29.09.2011 02:00 23,1 C 14,2 C 0,0 UV-I 0,0 C 61 % 89 % 0 % 1028,3 hPa 0,0 l/m 0,0 km/h (0 Bft) 0,00 h 0,07 h 0,0 km/h (0 Bft)
29.09.2011 03:00 23,0 C 13,7 C 0,0 UV-I 0,0 C 61 % 90 % 0 % 1028,1 hPa 0,0 l/m 0,0 km/h (0 Bft) 0,00 h 0,00 h 0,0 km/h (0 Bft)
29.09.2011 04:00 22,8 C 14,4 C 0,0 UV-I 0,0 C 61 % 91 % 0 % 1027,9 hPa 0,0 l/m 0,3 km/h (0 Bft) 0,00 h 0,07 h 1,1 km/h (1 Bft)
29.09.2011 05:00 22,6 C 14,1 C 0,0 UV-I 0,0 C 61 % 91 % 0 % 1027,7 hPa 0,0 l/m 0,0 km/h (0 Bft) 0,00 h 0,00 h 0,0 km/h (0 Bft)
29.09.2011 06:00 22,5 C 14,0 C 0,0 UV-I 0,0 C 61 % 92 % 0 % 1027,6 hPa 0,0 l/m 0,2 km/h (0 Bft) 0,00 h 0,00 h 0,7 km/h (0 Bft)
29.09.2011 07:00 22,4 C 14,0 C 0,0 UV-I 0,0 C 61 % 92 % 0 % 1027,6 hPa 0,0 l/m 1,5 km/h (1 Bft) 0,00 h 0,03 h 3,2 km/h (1 Bft)
29.09.2011 08:00 22,2 C 14,3 C 0,0 UV-I 0,5 C 60 % 92 % 13 % 1028,1 hPa 0,0 l/m 2,1 km/h (1 Bft) 0,17 h 0,00 h 4,3 km/h (1 Bft)
29.09.2011 09:00 22,3 C 16,0 C 0,1 UV-I 4,9 C 61 % 91 % 97 % 1028,3 hPa 0,0 l/m 3,1 km/h (1 Bft) 1,00 h 0,00 h 5,1 km/h (1 Bft)
29.09.2011 10:00 22,4 C 18,6 C 0,5 UV-I 5,6 C 61 % 86 % 100 % 1028,4 hPa 0,0 l/m 7,2 km/h (2 Bft) 1,00 h 0,00 h 9,7 km/h (2 Bft)
29.09.2011 11:00 22,6 C 21,1 C 1,2 UV-I 5,9 C 62 % 78 % 100 % 1028,6 hPa 0,0 l/m 5,3 km/h (1 Bft) 1,00 h 0,00 h 7,6 km/h (2 Bft)
29.09.2011 12:00 23,0 C 23,3 C 3,6 UV-I 5,5 C 63 % 70 % 100 % 1028,5 hPa 0,0 l/m 6,2 km/h (2 Bft) 1,00 h 0,00 h 7,8 km/h (2 Bft)
29.09.2011 13:00 23,9 C 25,4 C 4,5 UV-I 5,3 C 61 % 61 % 100 % 1028,4 hPa 0,0 l/m 6,0 km/h (2 Bft) 1,00 h 0,00 h 7,9 km/h (2 Bft)
29.09.2011 14:00 25,2 C 27,0 C 4,9 UV-I 4,8 C 59 % 54 % 100 % 1028,6 hPa 0,0 l/m 6,9 km/h (2 Bft) 1,00 h 0,00 h 9,7 km/h (2 Bft)
29.09.2011 15:00 26,3 C 27,9 C 4,3 UV-I 4,4 C 55 % 48 % 100 % 1028,3 hPa 0,0 l/m 6,3 km/h (2 Bft) 1,00 h 0,00 h 8,6 km/h (2 Bft)
29.09.2011 16:00 26,9 C 27,9 C 3,0 UV-I 3,5 C 51 % 43 % 96 % 1028,1 hPa 0,0 l/m 7,1 km/h (2 Bft) 1,00 h 0,00 h 8,5 km/h (2 Bft)
29.09.2011 17:00 26,7 C 27,3 C 0,9 UV-I 2,5 C 50 % 44 % 70 % 1027,7 hPa 0,0 l/m 5,8 km/h (2 Bft) 0,80 h 0,00 h 7,7 km/h (2 Bft)
29.09.2011 18:00 26,0 C 25,2 C 0,1 UV-I 1,0 C 52 % 51 % 29 % 1027,0 hPa 0,0 l/m 2,2 km/h (1 Bft) 0,43 h 0,00 h 3,8 km/h (1 Bft)
29.09.2011 19:00 25,4 C 22,7 C 0,0 UV-I 0,0 C 53 % 57 % 0 % 1026,9 hPa 0,0 l/m 0,2 km/h (0 Bft) 0,00 h 0,00 h 0,5 km/h (0 Bft)
29.09.2011 20:00 25,0 C 19,7 C 0,0 UV-I 0,0 C 54 % 65 % 0 % 1027,0 hPa 0,0 l/m 0,0 km/h (0 Bft) 0,00 h 0,00 h 0,0 km/h (0 Bft)
29.09.2011 21:00 24,5 C 17,1 C 0,0 UV-I 0,0 C 56 % 74 % 0 % 1026,9 hPa 0,0 l/m 0,0 km/h (0 Bft) 0,00 h 0,00 h 0,0 km/h (0 Bft)
29.09.2011 22:00 24,1 C 15,8 C 0,0 UV-I 0,0 C 56 % 80 % 0 % 1027,1 hPa 0,0 l/m 0,0 km/h (0 Bft) 0,00 h 0,00 h 0,0 km/h (0 Bft)
29.09.2011 23:00 23,8 C 16,1 C 0,0 UV-I 0,0 C 57 % 82 % 0 % 1027,0 hPa 0,0 l/m 0,3 km/h (0 Bft) 0,00 h 0,00 h 1,1 km/h (1 Bft)
30.09.2011 00:00 23,5 C 16,5 C 0,0 UV-I 0,0 C 57 % 83 % 0 % 1027,0 hPa 0,0 l/m 3,0 km/h (1 Bft) 0,00 h 0,00 h 5,3 km/h (1 Bft)
30.09.2011 01:00 23,2 C 16,0 C 0,0 UV-I 0,0 C 58 % 83 % 0 % 1026,6 hPa 0,0 l/m 0,6 km/h (0 Bft) 0,00 h 0,00 h 1,4 km/h (1 Bft)
30.09.2011 02:00 23,1 C 14,7 C 0,0 UV-I 0,0 C 58 % 85 % 0 % 1026,7 hPa 0,0 l/m 0,0 km/h (0 Bft) 0,00 h 0,03 h 0,0 km/h (0 Bft)
30.09.2011 03:00 23,0 C 13,5 C 0,0 UV-I 0,0 C 59 % 86 % 0 % 1026,5 hPa 0,0 l/m 0,0 km/h (0 Bft) 0,00 h 0,00 h 0,0 km/h (0 Bft)
30.09.2011 04:00 22,8 C 13,8 C 0,0 UV-I 0,0 C 58 % 89 % 0 % 1026,3 hPa 0,0 l/m 0,5 km/h (0 Bft) 0,00 h 0,00 h 1,3 km/h (1 Bft)
30.09.2011 05:00 22,6 C 13,7 C 0,0 UV-I 0,0 C 59 % 89 % 0 % 1026,2 hPa 0,0 l/m 0,1 km/h (0 Bft) 0,00 h 0,00 h 0,2 km/h (0 Bft)
30.09.2011 06:00 22,4 C 13,2 C 0,0 UV-I 0,0 C 59 % 89 % 0 % 1026,1 hPa 0,0 l/m 0,2 km/h (0 Bft) 0,00 h 0,00 h 1,0 km/h (0 Bft)
30.09.2011 07:00 22,3 C 13,2 C 0,0 UV-I 0,0 C 58 % 88 % 0 % 1025,8 hPa 0,0 l/m 1,0 km/h (0 Bft) 0,00 h 0,00 h 1,9 km/h (1 Bft)
30.09.2011 08:00 22,1 C 13,3 C 0,0 UV-I 1,2 C 57 % 88 % 30 % 1026,0 hPa 0,0 l/m 1,4 km/h (1 Bft) 0,33 h 0,00 h 2,9 km/h (1 Bft)
30.09.2011 09:00 22,0 C 15,1 C 0,1 UV-I 6,0 C 56 % 86 % 100 % 1026,2 hPa 0,0 l/m 5,7 km/h (1 Bft) 1,00 h 0,00 h 9,9 km/h (2 Bft)
30.09.2011 10:00 22,0 C 17,9 C 0,5 UV-I 6,0 C 57 % 77 % 100 % 1026,4 hPa 0,0 l/m 7,3 km/h (2 Bft) 1,00 h 0,00 h 9,2 km/h (2 Bft)
30.09.2011 11:00 22,3 C 20,6 C 1,2 UV-I 5,8 C 57 % 67 % 100 % 1026,4 hPa 0,0 l/m 6,9 km/h (2 Bft) 1,00 h 0,00 h 8,8 km/h (2 Bft)
30.09.2011 12:00 22,8 C 22,8 C 4,2 UV-I 5,6 C 56 % 59 % 100 % 1026,3 hPa 0,0 l/m 6,6 km/h (2 Bft) 1,00 h 0,00 h 9,6 km/h (2 Bft)
30.09.2011 13:00 23,8 C 24,5 C 5,1 UV-I 5,1 C 55 % 53 % 100 % 1026,3 hPa 0,0 l/m 7,1 km/h (2 Bft) 1,00 h 0,00 h 9,4 km/h (2 Bft)
30.09.2011 14:00 25,1 C 26,0 C 5,2 UV-I 4,9 C 52 % 49 % 100 % 1026,6 hPa 0,0 l/m 6,5 km/h (2 Bft) 1,00 h 0,00 h 8,1 km/h (2 Bft)
30.09.2011 15:00 26,1 C 27,1 C 4,5 UV-I 4,6 C 49 % 45 % 100 % 1026,6 hPa 0,0 l/m 5,4 km/h (1 Bft) 1,00 h 0,00 h 6,3 km/h (2 Bft)
30.09.2011 16:00 26,9 C 27,9 C 2,9 UV-I 4,1 C 47 % 43 % 100 % 1026,3 hPa 0,0 l/m 3,5 km/h (1 Bft) 1,00 h 0,00 h 5,1 km/h (1 Bft)
30.09.2011 17:00 26,7 C 27,8 C 0,8 UV-I 3,2 C 47 % 42 % 91 % 1025,9 hPa 0,0 l/m 1,5 km/h (1 Bft) 1,00 h 0,00 h 2,6 km/h (1 Bft)
30.09.2011 18:00 26,0 C 25,7 C 0,1 UV-I 1,3 C 49 % 47 % 36 % 1025,4 hPa 0,0 l/m 0,4 km/h (0 Bft) 0,63 h 0,00 h 1,1 km/h (1 Bft)
30.09.2011 19:00 25,5 C 22,1 C 0,0 UV-I 0,0 C 52 % 58 % 0 % 1025,2 hPa 0,0 l/m 0,0 km/h (0 Bft) 0,00 h 0,00 h 0,0 km/h (0 Bft)
30.09.2011 20:00 25,1 C 18,8 C 0,0 UV-I 0,0 C 53 % 69 % 0 % 1025,7 hPa 0,0 l/m 0,0 km/h (0 Bft) 0,00 h 0,00 h 0,0 km/h (0 Bft)
30.09.2011 21:00 24,6 C 16,7 C 0,0 UV-I 0,0 C 54 % 76 % 0 % 1025,8 hPa 0,0 l/m 0,0 km/h (0 Bft) 0,00 h 0,00 h 0,0 km/h (0 Bft)
30.09.2011 22:00 24,1 C 15,3 C 0,0 UV-I 0,0 C 56 % 81 % 0 % 1025,9 hPa 0,0 l/m 0,0 km/h (0 Bft) 0,00 h 0,00 h 0,0 km/h (0 Bft)
30.09.2011 23:00 23,9 C 14,4 C 0,0 UV-I 0,0 C 56 % 84 % 0 % 1026,1 hPa 0,0 l/m 0,0 km/h (0 Bft) 0,00 h 0,00 h 0,0 km/h (0 Bft)
01.10.2011 00:00 23,6 C 14,2 C 0,0 UV-I 0,0 C 56 % 86 % 0 % 1026,0 hPa 0,0 l/m 0,1 km/h (0 Bft) 0,00 h 0,03 h 0,0 km/h (0 Bft)
01.10.2011 01:00 23,4 C 14,4 C 0,0 UV-I 0,0 C 56 % 86 % 0 % 1025,9 hPa 0,0 l/m 0,0 km/h (0 Bft) 0,00 h 0,00 h 0,0 km/h (0 Bft)
01.10.2011 02:00 23,2 C 14,4 C 0,0 UV-I 0,0 C 56 % 86 % 0 % 1025,7 hPa 0,0 l/m 1,1 km/h (1 Bft) 0,00 h 0,00 h 2,1 km/h (1 Bft)
01.10.2011 03:00 23,1 C 14,0 C 0,0 UV-I 0,0 C 56 % 85 % 0 % 1025,7 hPa 0,0 l/m 0,0 km/h (0 Bft) 0,00 h 0,07 h 0,0 km/h (0 Bft)
01.10.2011 04:00 23,0 C 12,7 C 0,0 UV-I 0,0 C 57 % 86 % 0 % 1025,7 hPa 0,0 l/m 0,0 km/h (0 Bft) 0,00 h 0,03 h 0,0 km/h (0 Bft)
01.10.2011 05:00 22,8 C 12,4 C 0,0 UV-I 0,0 C 57 % 88 % 0 % 1025,7 hPa 0,0 l/m 0,2 km/h (0 Bft) 0,00 h 0,00 h 0,4 km/h (0 Bft)
01.10.2011 06:00 22,6 C 12,4 C 0,0 UV-I 0,0 C 57 % 89 % 0 % 1025,8 hPa 0,0 l/m 0,4 km/h (0 Bft) 0,00 h 0,00 h 1,2 km/h (1 Bft)
01.10.2011 07:00 22,5 C 11,5 C 0,0 UV-I 0,0 C 57 % 89 % 0 % 1026,0 hPa 0,0 l/m 0,0 km/h (0 Bft) 0,00 h 0,03 h 0,0 km/h (0 Bft)
01.10.2011 08:00 22,4 C 11,7 C 0,0 UV-I 1,1 C 57 % 91 % 29 % 1026,1 hPa 0,0 l/m 0,3 km/h (0 Bft) 0,33 h 0,00 h 1,4 km/h (1 Bft)
01.10.2011 09:00 22,4 C 13,8 C 0,1 UV-I 6,3 C 57 % 91 % 100 % 1026,5 hPa 0,0 l/m 3,0 km/h (1 Bft) 1,00 h 0,00 h 5,5 km/h (1 Bft)
01.10.2011 10:00 22,6 C 16,9 C 0,5 UV-I 7,8 C 57 % 88 % 100 % 1027,1 hPa 0,0 l/m 1,6 km/h (1 Bft) 0,70 h 0,00 h 2,5 km/h (1 Bft)
01.10.2011 11:00 23,3 C 20,3 C 1,1 UV-I 7,9 C 58 % 75 % 100 % 1027,2 hPa 0,0 l/m 1,4 km/h (1 Bft) 0,43 h 0,00 h 1,5 km/h (1 Bft)
01.10.2011 12:00 24,0 C 22,8 C 3,8 UV-I 7,3 C 57 % 65 % 100 % 1027,4 hPa 0,0 l/m 1,8 km/h (1 Bft) 1,00 h 0,00 h 2,5 km/h (1 Bft)
01.10.2011 13:00 25,1 C 24,9 C 4,9 UV-I 7,0 C 55 % 58 % 100 % 1027,6 hPa 0,0 l/m 1,9 km/h (1 Bft) 0,83 h 0,00 h 3,8 km/h (1 Bft)
01.10.2011 14:00 26,5 C 26,5 C 5,1 UV-I 6,8 C 52 % 52 % 100 % 1027,9 hPa 0,0 l/m 1,8 km/h (1 Bft) 1,00 h 0,00 h 3,3 km/h (1 Bft)
01.10.2011 15:00 27,4 C 27,9 C 4,4 UV-I 5,9 C 49 % 46 % 100 % 1027,7 hPa 0,0 l/m 2,1 km/h (1 Bft) 1,00 h 0,00 h 3,9 km/h (1 Bft)
01.10.2011 16:00 28,2 C 28,1 C 2,7 UV-I 5,2 C 47 % 43 % 100 % 1027,7 hPa 0,0 l/m 1,6 km/h (1 Bft) 1,00 h 0,00 h 3,0 km/h (1 Bft)
01.10.2011 17:00 28,1 C 27,8 C 0,7 UV-I 3,6 C 47 % 44 % 93 % 1027,1 hPa 0,0 l/m 2,1 km/h (1 Bft) 0,97 h 0,00 h 3,9 km/h (1 Bft)
01.10.2011 18:00 27,5 C 25,5 C 0,0 UV-I 1,2 C 48 % 53 % 35 % 1026,9 hPa 0,0 l/m 1,1 km/h (1 Bft) 0,63 h 0,00 h 1,2 km/h (1 Bft)
01.10.2011 19:00 27,0 C 22,1 C 0,0 UV-I 0,0 C 50 % 63 % 0 % 1026,9 hPa 0,0 l/m 0,0 km/h (0 Bft) 0,00 h 0,00 h 0,0 km/h (0 Bft)
01.10.2011 20:00 26,5 C 18,9 C 0,0 UV-I 0,0 C 52 % 73 % 0 % 1027,0 hPa 0,0 l/m 0,0 km/h (0 Bft) 0,00 h 0,00 h 0,0 km/h (0 Bft)
01.10.2011 21:00 25,6 C 17,0 C 0,0 UV-I 0,0 C 54 % 80 % 0 % 1026,9 hPa 0,0 l/m 0,0 km/h (0 Bft) 0,00 h 0,00 h 0,0 km/h (0 Bft)
01.10.2011 22:00 24,9 C 15,8 C 0,0 UV-I 0,0 C 55 % 84 % 0 % 1027,1 hPa 0,0 l/m 0,0 km/h (0 Bft) 0,00 h 0,03 h 0,0 km/h (0 Bft)
01.10.2011 23:00 24,4 C 14,9 C 0,0 UV-I 0,0 C 56 % 86 % 0 % 1027,1 hPa 0,0 l/m 0,0 km/h (0 Bft) 0,00 h 0,03 h 0,0 km/h (0 Bft)
02.10.2011 00:00 23,9 C 14,3 C 0,0 UV-I 0,0 C 56 % 88 % 0 % 1026,8 hPa 0,0 l/m 0,0 km/h (0 Bft) 0,00 h 0,03 h 0,0 km/h (0 Bft)
02.10.2011 01:00 23,6 C 13,7 C 0,0 UV-I 0,0 C 56 % 89 % 0 % 1026,4 hPa 0,0 l/m 0,0 km/h (0 Bft) 0,00 h 0,00 h 0,0 km/h (0 Bft)
02.10.2011 02:00 23,3 C 13,2 C 0,0 UV-I 0,0 C 56 % 90 % 0 % 1026,3 hPa 0,0 l/m 0,0 km/h (0 Bft) 0,00 h 0,00 h 0,0 km/h (0 Bft)
02.10.2011 03:00 23,0 C 12,6 C 0,0 UV-I 0,0 C 55 % 90 % 0 % 1025,9 hPa 0,0 l/m 0,0 km/h (0 Bft) 0,00 h 0,03 h 0,0 km/h (0 Bft)
02.10.2011 04:00 22,8 C 12,2 C 0,0 UV-I 0,0 C 55 % 90 % 0 % 1025,9 hPa 0,0 l/m 0,0 km/h (0 Bft) 0,00 h 0,03 h 0,0 km/h (0 Bft)
02.10.2011 05:00 22,6 C 11,7 C 0,0 UV-I 0,0 C 55 % 91 % 0 % 1025,5 hPa 0,0 l/m 0,0 km/h (0 Bft) 0,00 h 0,00 h 0,0 km/h (0 Bft)
02.10.2011 06:00 22,5 C 11,4 C 0,0 UV-I 0,0 C 56 % 91 % 0 % 1025,5 hPa 0,0 l/m 0,0 km/h (0 Bft) 0,00 h 0,00 h 0,0 km/h (0 Bft)
02.10.2011 07:00 22,4 C 11,2 C 0,0 UV-I 0,0 C 56 % 92 % 0 % 1025,6 hPa 0,0 l/m 0,0 km/h (0 Bft) 0,00 h 0,00 h 0,0 km/h (0 Bft)
02.10.2011 08:00 22,3 C 10,9 C 0,0 UV-I 0,8 C 56 % 92 % 22 % 1026,1 hPa 0,0 l/m 0,0 km/h (0 Bft) 0,27 h 0,00 h 0,0 km/h (0 Bft)
02.10.2011 09:00 22,3 C 12,5 C 0,2 UV-I 5,2 C 57 % 93 % 100 % 1026,3 hPa 0,0 l/m 0,0 km/h (0 Bft) 1,00 h 0,00 h 0,0 km/h (0 Bft)
02.10.2011 10:00 22,5 C 15,3 C 0,7 UV-I 8,1 C 57 % 93 % 100 % 1026,3 hPa 0,0 l/m 0,3 km/h (0 Bft) 1,00 h 0,00 h 0,9 km/h (0 Bft)
02.10.2011 11:00 22,8 C 18,8 C 1,2 UV-I 8,4 C 58 % 90 % 100 % 1026,3 hPa 0,0 l/m 0,8 km/h (0 Bft) 1,00 h 0,00 h 2,4 km/h (1 Bft)
02.10.2011 12:00 23,3 C 21,8 C 3,0 UV-I 8,1 C 58 % 80 % 100 % 1026,1 hPa 0,0 l/m 0,9 km/h (0 Bft) 1,00 h 0,00 h 2,2 km/h (1 Bft)
02.10.2011 13:00 24,1 C 23,5 C 3,6 UV-I 7,6 C 57 % 67 % 100 % 1026,0 hPa 0,0 l/m 2,4 km/h (1 Bft) 1,00 h 0,00 h 3,8 km/h (1 Bft)
02.10.2011 14:00 25,2 C 24,4 C 3,3 UV-I 6,2 C 55 % 62 % 100 % 1026,1 hPa 0,0 l/m 4,6 km/h (1 Bft) 1,00 h 0,00 h 6,9 km/h (2 Bft)
02.10.2011 15:00 26,0 C 24,9 C 2,5 UV-I 5,6 C 54 % 61 % 100 % 1025,9 hPa 0,0 l/m 3,6 km/h (1 Bft) 1,00 h 0,00 h 6,0 km/h (2 Bft)
02.10.2011 16:00 26,4 C 25,1 C 1,4 UV-I 4,5 C 52 % 61 % 100 % 1025,6 hPa 0,0 l/m 2,3 km/h (1 Bft) 1,00 h 0,00 h 5,3 km/h (1 Bft)
02.10.2011 17:00 26,2 C 25,0 C 0,5 UV-I 2,8 C 53 % 60 % 81 % 1024,9 hPa 0,0 l/m 1,2 km/h (1 Bft) 1,00 h 0,00 h 1,9 km/h (1 Bft)
02.10.2011 18:00 25,8 C 23,6 C 0,0 UV-I 0,8 C 54 % 63 % 22 % 1024,5 hPa 0,0 l/m 0,0 km/h (0 Bft) 0,43 h 0,00 h 0,0 km/h (0 Bft)
02.10.2011 19:00 25,3 C 20,5 C 0,0 UV-I 0,0 C 55 % 72 % 0 % 1024,4 hPa 0,0 l/m 0,0 km/h (0 Bft) 0,00 h 0,00 h 0,0 km/h (0 Bft)
02.10.2011 20:00 24,7 C 17,7 C 0,0 UV-I 0,0 C 56 % 80 % 0 % 1024,8 hPa 0,0 l/m 0,1 km/h (0 Bft) 0,00 h 0,03 h 0,2 km/h (0 Bft)
02.10.2011 21:00 24,2 C 16,0 C 0,0 UV-I 0,0 C 58 % 84 % 0 % 1024,5 hPa 0,0 l/m 0,0 km/h (0 Bft) 0,00 h 0,03 h 0,0 km/h (0 Bft)
02.10.2011 22:00 23,9 C 14,8 C 0,0 UV-I 0,0 C 58 % 86 % 0 % 1024,0 hPa 0,0 l/m 0,0 km/h (0 Bft) 0,00 h 0,00 h 0,0 km/h (0 Bft)
02.10.2011 23:00 23,6 C 13,7 C 0,0 UV-I 0,0 C 58 % 87 % 0 % 1023,9 hPa 0,0 l/m 0,0 km/h (0 Bft) 0,00 h 0,00 h 0,0 km/h (0 Bft)
Min-Datum _ 26.09.11 28.09.11 26.09.11 26.09.11 30.09.11 01.10.11 26.09.11 26.09.11 - 26.09.11 - - 26.09.11
_ Min-Zeit 07:26 07:34 00:00 00:00 16:16 16:42 00:00 01:04 - 00:00 - - 00:00
Minimum _ 21,6 C 10,4 C 0,0 UV-I 0,0 C 47 % 40 % 0 % 1019,8 hPa - 0,0 km/h (0 Bft) - - 0,0 km/h (0 Bft)
Max-Datum _ 01.10.11 01.10.11 30.09.11 02.10.11 28.09.11 28.09.11 26.09.11 27.09.11 26.09.11 30.09.11 26.09.11 26.09.11 30.09.11
_ Max-Zeit 16:42 17:00 12:46 11:22 11:20 09:06 10:16 23:04 00:00 09:56 08:56 00:20 09:58
Maximum _ 28,4 C 28,9 C 5,4 UV-I 8,8 C 63 % 94 % 100 % 1031,5 hPa 0,0 l/m 10,4 km/h
O-NO (2 Bft)
0,03 h 0,03 h 22,5 km/h
O-NO (4 Bft)
Durchschnitt _ 23,8 C 18,3 C 0,8 UV-I 2,0 C 57 % 77 % 37 % 1026,9 hPa #0,0 l/m 1,7 km/h (1 Bft) #62:02 h #1:22 h 2,6 km/h (1 Bft)
© 2012 W. Hausmann